Terminal Aerodrome Forecast
Issued by NWS

Home | Current Version | Previous Version | Text Only | Print | Product List | Glossary On
Versions: 1 2 3 4 5 6 7 8 9 10 11 12 13 14
306
FTUS45 KRIW 280526
TAFBPI
TAF
KBPI 280526Z 2806/2906 36006KT P6SM FEW120
     FM281400 VRB05KT 4SM FU FEW120
     FM281900 29011KT P6SM FEW120
     FM282100 32014G22KT P6SM SCT120
     FM290200 35008KT P6SM FEW120=

USA.gov is the U.S. government's official web portal to all federal, state and local government web resources and services.